• Join FlightAware (Why Join?)
  • Login
  • US Flag 
06:34AM EDT


 

Airport Tracker/Info


-or-


 

Live Flight TrackerFlight Track Log ✈ EGF4086 ✈ 15-Apr-2013 ✈ KROC - KORD

Flight Track Log - Related Links

Times and Time Zones

All times are in EDT time to prevent confusion due to time zone crossing. See the EGF4086 flight status page for this flight to view local times or setup timezone preferences in your user account.

Time Position Orientation Groundspeed Altitude Reporting Facility
EDT Latitude Longitude Course Direction KTS MPH feet Rate Location/Type
03:11PM 43.0975 -77.6972 281° West 155 178 1,300  Level Cleveland Center
03:12PM 43.0714 -77.7356 227° Southwest 201 231 3,100 2,460 Climbing Cleveland Center
03:13PM 43.1482 -78.0019 280° West  Level FlightAware Approximate
03:13PM 43.0833 -77.8058 283° West 213 245 5,900  Level Cleveland Center
03:14PM 43.1581 -78.1146 278° West  Level FlightAware Approximate
03:14PM 43.0997 -77.8850 286° West 213 245 8,400  Level Cleveland Center
03:15PM 43.1705 -78.2269 281° West  Level FlightAware Approximate
03:15PM 43.1164 -77.9694 285° West 219 252 10,600  Level Cleveland Center
03:16PM 43.1865 -78.3385 281° West  Level FlightAware Approximate
03:16PM 43.1331 -78.0628 284° West 238 274 12,600  Level Cleveland Center
03:17PM 43.1517 -78.1531 286° West 258 297 14,600 1,980 Climbing Cleveland Center
03:18PM 43.1703 -78.2547 284° West 269 310 16,600 1,860 Climbing Cleveland Center
03:19PM 43.1892 -78.3567 284° West 280 322 18,400 1,620 Climbing Cleveland Center
03:20PM 43.2078 -78.4697 283° West 286 329 19,900 1,260 Climbing Cleveland Center
03:21PM 43.2058 -78.5894 269° West 305 351 21,000 1,020 Climbing Cleveland Center
03:22PM 43.1997 -78.7236 266° West 331 381 22,000 960 Climbing Cleveland Center
03:23PM 43.1833 -78.9167 263° West 370 426 23,500 960 Climbing Toronto Center
03:24PM 43.1667 -79.0667 261° West 380 437 24,500 1,260 Climbing Toronto Center
03:25PM 43.1667 -79.2167 270° West 380 437 26,100 1,860 Climbing Toronto Center
03:26PM 43.1500 -79.3667 261° West 360 414 28,300 1,740 Climbing Toronto Center
03:27PM 43.1500 -79.4667 270° West 330 380 29,600 840 Climbing Toronto Center
03:28PM 43.1333 -79.6167 261° West 340 391 30,000 180 Climbing Toronto Center
03:29PM 43.1333 -79.7500 270° West 350 403 30,000  Level Toronto Center
03:30PM 43.1167 -79.8667 259° West 360 414 30,000  Level Toronto Center
03:31PM 43.1167 -80.0000 270° West 350 403 30,000  Level Toronto Center
03:32PM 43.1000 -80.1333 260° West 350 403 30,000  Level Toronto Center
03:33PM 43.1000 -80.2667 270° West 350 403 30,000  Level Toronto Center
03:34PM 43.0833 -80.4167 261° West 350 403 30,000  Level Toronto Center
03:35PM 43.0833 -80.5500 270° West 350 403 30,000  Level Toronto Center
03:36PM 43.0667 -80.6667 259° West 340 391 30,000  Level Toronto Center
03:37PM 43.0667 -80.8000 270° West 350 403 30,000  Level Toronto Center
03:38PM 43.0333 -80.9333 251° West 350 403 30,000  Level Toronto Center
03:39PM 43.0333 -81.0667 270° West 350 403 30,000  Level Toronto Center
03:40PM 43.0167 -81.2000 260° West 350 403 30,000  Level Toronto Center
03:41PM 43.0167 -81.3500 270° West 350 403 30,000  Level Toronto Center
03:42PM 43.0167 -81.4833 270° West 350 403 30,000  Level Toronto Center
03:43PM 43.0167 -81.6000 270° West 350 403 30,000  Level Toronto Center
03:44PM 43.0167 -81.7333 270° West 350 403 30,000  Level Toronto Center
03:45PM 43.0167 -81.8667 270° West 350 403 30,000  Level Toronto Center
03:46PM 43.0000 -82.0000 260° West 350 403 30,000  Level Toronto Center
03:47PM 43.0000 -82.1333 270° West 350 403 30,000  Level Toronto Center
03:48PM 43.0000 -82.2833 270° West 350 403 30,000  Level Toronto Center
03:49PM 43.0000 -82.3833 270° West 350 403 30,000  Level Toronto Center
03:50PM 43.0000 -82.5333 270° West 350 403 30,000  Level Toronto Center
03:51PM 42.9833 -82.6667 260° West 350 403 30,000  Level Toronto Center
03:52PM 42.9833 -82.8000 270° West 350 403 30,000  Level Toronto Center
03:53PM 42.9833 -82.9167 270° West 340 391 30,000  Level Toronto Center
03:54PM 42.9833 -83.0333 270° West 320 368 30,000  Level Toronto Center
03:55PM 42.9833 -83.1667 270° West 310 357 30,000  Level Toronto Center
03:56PM 42.9667 -83.2833 259° West 320 368 30,000  Level Toronto Center
03:57PM 42.9667 -83.4000 270° West 330 380 30,000  Level Toronto Center
03:58PM 42.9667 -83.5333 270° West 320 368 30,000  Level Toronto Center
03:59PM 42.9667 -83.6500 270° West 320 368 30,000  Level Toronto Center
04:00PM 42.9500 -83.7833 260° West 320 368 30,000  Level Toronto Center
04:01PM 42.9333 -83.9167 260° West 340 391 30,000  Level Toronto Center
04:02PM 42.9333 -84.0500 270° West 360 414 30,000  Level Toronto Center
04:03PM 42.9283 -84.1411 266° West 374 430 30,000  Level Chicago Center
04:03PM 42.9228 -84.1869 261° West 375 432 30,000  Level Cleveland Center
04:04PM 42.9097 -84.3339 263° West 366 421 30,000  Level Cleveland Center
04:05PM 42.9019 -84.4178 263° West 367 422 30,000  Level Chicago Center
04:06PM 42.8881 -84.5567 262° West 370 426 30,000  Level Chicago Center
04:07PM 42.8736 -84.6947 262° West 368 423 30,000  Level Chicago Center
04:08PM 42.8589 -84.8367 262° West 378 435 30,000  Level Chicago Center
04:09PM 42.8439 -84.9764 262° West 375 432 30,000  Level Chicago Center
04:10PM 42.8261 -85.1414 262° West 368 423 30,000  Level Chicago Center
04:11PM 42.8114 -85.2797 262° West 370 426 30,000  Level Chicago Center
04:12PM 42.7958 -85.4167 261° West 367 422 30,000 -300 Level Chicago Center
04:13PM 42.7781 -85.5531 260° West 366 421 29,400 -1,260 Descending Chicago Center
04:14PM 42.7531 -85.6883 256° West 366 421 27,400 -1,980 Descending Chicago Center
04:15PM 42.7294 -85.8181 256° West 356 410 25,300 -1,920 Descending Chicago Center
04:16PM 42.7039 -85.9611 256° West 326 375 23,400 -1,740 Descending Chicago Center
04:17PM 42.6822 -86.0800 256° West 323 372 21,800 -1,500 Descending Chicago Center
04:18PM 42.6600 -86.1981 256° West 322 371 20,400 -1,260 Descending Chicago Center
04:19PM 42.6386 -86.3108 256° West 312 359 19,300 -1,260 Descending Chicago Center
04:21PM 42.6181 -86.4242 256° West 309 356 17,800 -1,500 Descending Chicago Center
04:22PM 42.5964 -86.5361 255° West 306 352 16,300 -1,500 Descending Chicago Center
04:23PM 42.5753 -86.6469 256° West 303 349 14,800 -1,620 Descending Chicago Center
04:24PM 42.5475 -86.7808 254° West 309 356 13,000 -1,560 Descending Chicago Center
04:25PM 42.5178 -86.8844 249° West 298 343 11,600 -1,140 Descending Chicago Center
04:26PM 42.4897 -86.9906 250° West 298 343 10,700 -780 Descending Chicago Center
04:27PM 42.4594 -87.0944 248° West 298 343 10,000 -480 Descending Chicago Center
04:28PM 42.4314 -87.1958 249° West 292 336 9,800 -300 Descending Chicago Center
04:29PM 42.3911 -87.2631 231° Southwest 269 310 9,400 -480 Descending Chicago Center
04:30PM 42.3025 -87.2431 171° South 271 312 8,900 -720 Descending Chicago Center
04:31PM 42.2314 -87.2253 170° South 263 303 8,000 -840 Descending Chicago Center
04:32PM 42.1650 -87.2356 187° South 254 292 7,200 -540 Descending Chicago Center
04:33PM 42.1031 -87.2681 201° Southwest 240 276 7,000 -120 Descending Chicago Center
04:34PM 42.0550 -87.3247 221° Southwest 234 269 7,000  Level Chicago Center
04:35PM 42.0167 -87.3833 229° Southwest 207 238 7,000  Level Chicago TRACON
04:36PM 41.9833 -87.4500 236° Southwest 193 222 7,000 -120 Level Chicago TRACON
04:37PM 41.9833 -87.5167 270° West 178 205 6,800 -660 Descending Chicago TRACON
04:38PM 41.9833 -87.5667 270° West 157 181 5,700 -1,080 Descending Chicago TRACON
04:39PM 41.9833 -87.6333 270° West 155 178 4,700 -960 Descending Chicago TRACON
04:40PM 41.9833 -87.6833 270° West 164 189 3,900 -900 Descending Chicago TRACON